Time;durP1;ratioP1;P1;durP2;ratioP2;P2;SDS_P1;SDS_P2;PMS_P1;PMS_P2;Temp;Humidity;BMP_temperature;BMP_pressure;BME280_temperature;BME280_humidity;BME280_pressure;Samples;Min_cycle;Max_cycle;Signal;HPM_P1;HPM_P2
2022/08/16 00:01:44;;;;;;;;;29.75;27.25;;;;;25.16;47.53;99994.31;5081767;28;46261;-80
2022/08/16 00:04:09;;;;;;;;;27.75;26.50;;;;;25.13;47.88;99997.44;5081479;27;45763;-82
2022/08/16 00:06:35;;;;;;;;;32.00;26.50;;;;;25.11;47.97;99990.63;5081136;27;45899;-82
2022/08/16 00:09:01;;;;;;;;;27.75;27.00;;;;;25.05;47.96;99989.66;5076894;27;45704;-82
2022/08/16 00:11:29;;;;;;;;;26.00;23.75;;;;;25.02;47.96;100000.81;5075630;27;45751;-83
2022/08/16 00:13:55;;;;;;;;;27.00;25.25;;;;;25.02;48.06;100001.66;5074741;27;45790;-81
2022/08/16 00:16:30;;;;;;;;;27.50;24.75;;;;;25.00;47.88;100006.41;5074686;28;45566;-81
2022/08/16 00:18:56;;;;;;;;;22.25;22.00;;;;;24.98;47.72;100008.50;5073900;28;46758;-83
2022/08/16 00:21:25;;;;;;;;;27.75;26.00;;;;;24.95;47.84;100006.22;5073907;27;47291;-82
2022/08/16 00:23:50;;;;;;;;;26.00;24.50;;;;;24.96;47.99;100001.69;5073912;27;45570;-82
2022/08/16 00:26:16;;;;;;;;;44.75;33.50;;;;;24.94;48.24;100006.47;5074196;27;45667;-78
2022/08/16 00:28:41;;;;;;;;;45.00;36.50;;;;;24.94;48.33;100009.16;5073828;27;45646;-79
2022/08/16 00:31:06;;;;;;;;;27.25;26.25;;;;;24.90;48.37;100011.41;5073978;27;46155;-81
2022/08/16 00:33:32;;;;;;;;;35.75;30.25;;;;;24.90;48.47;100019.47;5074065;27;45701;-80
2022/08/16 00:39:19;;;;;;;;;23.00;22.25;;;;;24.82;48.62;100008.97;5073292;28;45986;-82
2022/08/16 00:41:47;;;;;;;;;27.50;25.75;;;;;24.81;48.59;100012.69;5073791;27;45659;-78
2022/08/16 00:44:14;;;;;;;;;23.50;23.00;;;;;24.79;48.12;100006.72;5073234;27;45790;-78
2022/08/16 00:46:54;;;;;;;;;27.75;26.50;;;;;24.82;48.73;100011.66;5074015;27;45760;-82
2022/08/16 00:49:21;;;;;;;;;25.75;25.25;;;;;24.79;48.78;100004.03;5089078;27;47728;-83
2022/08/16 00:51:48;;;;;;;;;28.75;26.25;;;;;24.82;49.15;100005.47;5074080;27;46132;-82
2022/08/16 00:54:15;;;;;;;;;30.50;28.25;;;;;24.79;48.85;99998.69;5073768;27;45894;-79
2022/08/16 00:56:43;;;;;;;;;29.25;27.75;;;;;24.77;48.70;99997.28;5106952;27;45649;-81
2022/08/16 00:59:11;;;;;;;;;27.25;25.75;;;;;24.80;48.80;99996.81;5075762;28;47387;-81
2022/08/16 01:01:39;;;;;;;;;26.50;24.75;;;;;24.76;48.35;99988.41;5077707;27;46235;-80
2022/08/16 01:04:06;;;;;;;;;30.75;29.25;;;;;24.76;48.91;99983.03;5077020;27;45567;-79
2022/08/16 01:06:33;;;;;;;;;25.75;24.25;;;;;24.77;48.47;99990.06;5077238;27;45796;-82
2022/08/16 01:09:10;;;;;;;;;27.75;26.25;;;;;24.77;48.95;99982.00;5077079;27;45959;-82
2022/08/16 01:11:37;;;;;;;;;26.75;25.75;;;;;24.79;48.74;99989.81;5078081;27;46691;-77
2022/08/16 01:14:18;;;;;;;;;25.50;24.50;;;;;24.80;48.76;99988.78;5077213;28;45691;-79
2022/08/16 01:16:46;;;;;;;;;26.00;25.50;;;;;24.78;48.72;99978.28;5077191;27;45657;-81
2022/08/16 01:19:27;;;;;;;;;26.25;25.25;;;;;24.79;48.59;99979.91;5076842;28;45696;-81
2022/08/16 01:22:00;;;;;;;;;26.75;25.25;;;;;24.79;48.78;99979.09;5076336;27;46046;-82
2022/08/16 01:24:38;;;;;;;;;13.50;12.50;;;;;24.79;48.97;99981.78;5076497;27;45791;-83
2022/08/16 01:27:09;;;;;;;;;28.25;27.50;;;;;24.78;48.90;99977.47;5077085;27;45912;-81
2022/08/16 01:29:47;;;;;;;;;25.00;24.00;;;;;24.79;48.88;99992.50;5076799;27;46672;-82
2022/08/16 01:32:12;;;;;;;;;20.75;20.75;;;;;24.74;48.77;99985.09;5076425;27;47001;-80
2022/08/16 01:34:38;;;;;;;;;27.25;27.00;;;;;24.74;48.57;99984.28;5076766;27;45565;-80
2022/08/16 01:37:12;;;;;;;;;29.75;28.50;;;;;24.72;48.79;99981.84;5076589;27;45793;-82
2022/08/16 01:39:38;;;;;;;;;26.75;26.00;;;;;24.70;48.84;99978.53;5076622;27;46605;-81
2022/08/16 01:42:09;;;;;;;;;28.25;26.50;;;;;24.71;48.84;99982.88;5075295;28;46873;-82
2022/08/16 01:44:36;;;;;;;;;24.00;23.50;;;;;24.72;48.73;99987.19;5076445;27;45899;-81
2022/08/16 01:47:02;;;;;;;;;29.25;27.75;;;;;24.72;49.05;99984.53;5077096;27;45676;-79
2022/08/16 01:49:32;;;;;;;;;37.50;33.00;;;;;24.70;48.76;99983.91;5076320;27;47290;-80
2022/08/16 01:52:11;;;;;;;;;43.75;33.25;;;;;24.67;49.19;99978.97;5076167;28;46183;-81
2022/08/16 01:54:37;;;;;;;;;39.25;32.75;;;;;24.68;48.99;99980.59;5076442;27;45479;-80
2022/08/16 01:57:03;;;;;;;;;37.75;33.00;;;;;24.66;48.90;99982.69;5109277;27;45581;-82
2022/08/16 01:59:30;;;;;;;;;34.50;31.50;;;;;24.63;48.89;99978.59;5076260;27;45842;-82
2022/08/16 02:01:56;;;;;;;;;34.75;30.00;;;;;24.62;48.70;99982.28;5075776;27;47187;-81
2022/08/16 02:04:24;;;;;;;;;31.75;29.50;;;;;24.62;48.83;99979.63;5076081;28;45589;-82
2022/08/16 02:06:50;;;;;;;;;30.00;26.50;;;;;24.63;49.32;99978.59;5076206;27;45636;-82
2022/08/16 02:09:18;;;;;;;;;28.25;26.25;;;;;24.62;48.78;99973.44;5075127;27;46723;-79
2022/08/16 02:11:49;;;;;;;;;29.00;28.00;;;;;24.61;48.63;99980.69;5076095;27;46150;-76
2022/08/16 02:14:15;;;;;;;;;24.50;23.75;;;;;24.60;48.90;99984.38;5076097;27;45835;-76
2022/08/16 02:16:43;;;;;;;;;31.00;29.25;;;;;24.60;49.07;99978.19;5076236;27;45515;-81
2022/08/16 02:19:10;;;;;;;;;25.50;24.50;;;;;24.59;49.19;99974.69;5076413;27;46240;-81
2022/08/16 02:24:56;;;;;;;;;25.00;24.00;;;;;24.60;48.88;99978.19;5075792;28;45558;-80
2022/08/16 02:27:21;;;;;;;;;27.50;27.00;;;;;24.60;48.96;99970.16;5076103;27;45724;-80
2022/08/16 02:29:47;;;;;;;;;27.75;25.75;;;;;24.61;49.18;99971.81;5075737;28;45630;-81
2022/08/16 02:32:14;;;;;;;;;23.00;23.00;;;;;24.61;49.06;99963.78;5075779;27;46150;-80
2022/08/16 02:34:40;;;;;;;;;27.25;25.25;;;;;24.61;48.79;99950.38;5075895;27;46117;-80
2022/08/16 02:37:05;;;;;;;;;24.25;23.75;;;;;24.63;49.10;99948.28;5075527;27;45539;-80
2022/08/16 02:39:31;;;;;;;;;26.00;23.75;;;;;24.64;48.87;99941.91;5075857;28;45626;-81
2022/08/16 02:41:56;;;;;;;;;25.25;22.00;;;;;24.65;48.95;99946.22;5075553;27;45660;-81
2022/08/16 02:44:22;;;;;;;;;28.00;25.75;;;;;24.64;48.88;99929.31;5075292;27;45796;-80
2022/08/16 02:46:48;;;;;;;;;27.25;25.75;;;;;24.66;48.60;99929.13;5075286;27;45740;-81
2022/08/16 02:49:14;;;;;;;;;25.75;24.50;;;;;24.67;49.01;99933.41;5075312;28;46491;-81
2022/08/16 02:55:01;;;;;;;;;27.25;25.50;;;;;24.66;49.13;99947.88;5075326;28;45685;-79
2022/08/16 02:57:26;;;;;;;;;22.00;20.00;;;;;24.64;49.34;99934.69;5075260;27;45647;-82
2022/08/16 02:59:52;;;;;;;;;26.75;25.00;;;;;24.65;49.21;99922.94;5075338;27;45878;-80
2022/08/16 03:02:18;;;;;;;;;29.50;27.00;;;;;24.66;49.00;99905.81;5075143;27;46278;-78
2022/08/16 03:04:43;;;;;;;;;31.00;29.25;;;;;24.68;48.93;99913.63;5075417;27;45748;-81
2022/08/16 03:07:09;;;;;;;;;28.75;28.00;;;;;24.64;48.88;99909.75;5073831;28;45619;-78
2022/08/16 03:09:34;;;;;;;;;29.00;28.25;;;;;24.67;48.92;99918.16;5075102;27;46787;-76
2022/08/16 03:12:01;;;;;;;;;28.50;26.75;;;;;24.67;49.07;99903.94;5074756;27;45984;-80
2022/08/16 03:14:27;;;;;;;;;28.50;26.25;;;;;24.67;49.15;99904.75;5075072;27;45817;-81
2022/08/16 03:16:53;;;;;;;;;32.00;30.25;;;;;24.69;49.00;99917.94;5074426;28;45836;-78
2022/08/16 03:19:18;;;;;;;;;27.25;26.25;;;;;24.71;49.64;99925.78;5074167;27;46721;-81
2022/08/16 03:25:10;;;;;;;;;30.75;28.25;;;;;24.69;49.55;99926.00;5074510;28;45565;-82
2022/08/16 03:27:37;;;;;;;;;29.50;27.50;;;;;24.66;49.52;99921.91;5074624;27;45605;-82
2022/08/16 03:30:13;;;;;;;;;27.50;25.75;;;;;24.71;49.61;99931.97;5074648;28;45636;-80
2022/08/16 03:32:39;;;;;;;;;27.75;24.75;;;;;24.70;49.63;99933.00;5074314;27;46536;-75
2022/08/16 03:35:06;;;;;;;;;32.00;30.00;;;;;24.70;49.44;99935.69;5074700;27;45961;-77
2022/08/16 03:37:32;;;;;;;;;26.75;26.75;;;;;24.69;49.98;99939.38;5073111;28;45797;-79
2022/08/16 03:39:57;;;;;;;;;7.50;6.25;;;;;24.69;49.57;99950.09;5074530;27;45474;-79
2022/08/16 03:42:23;;;;;;;;;29.00;28.00;;;;;24.68;49.78;99948.47;5074263;27;45756;-79
2022/08/16 03:44:48;;;;;;;;;28.50;26.50;;;;;24.67;49.68;99952.16;5074490;27;45469;-81
2022/08/16 03:47:14;;;;;;;;;30.25;28.00;;;;;24.67;49.50;99954.84;5074416;27;45592;-81
2022/08/16 03:49:39;;;;;;;;;27.75;27.50;;;;;24.66;49.79;99958.59;5074368;27;46789;-81
2022/08/16 03:52:06;;;;;;;;;27.00;25.50;;;;;24.63;49.76;99954.47;5074054;27;46245;-79
2022/08/16 03:54:32;;;;;;;;;27.50;27.50;;;;;24.60;50.07;99962.13;5074443;27;45699;-81
2022/08/16 03:56:57;;;;;;;;;30.00;27.00;;;;;24.58;50.77;99962.34;5074575;27;45731;-81
2022/08/16 03:59:23;;;;;;;;;28.50;27.00;;;;;24.56;50.46;99961.72;5074361;27;45655;-79
2022/08/16 04:01:48;;;;;;;;;27.50;25.25;;;;;24.52;50.33;99960.50;5073798;27;46918;-78
2022/08/16 04:04:13;;;;;;;;;26.00;24.50;;;;;24.50;50.47;99967.97;5074425;27;46041;-81
2022/08/16 04:10:02;;;;;;;;;28.50;26.00;;;;;24.44;50.89;99955.44;5073964;28;45623;-81
2022/08/16 04:12:27;;;;;;;;;24.50;23.75;;;;;24.42;51.01;99964.69;5074143;27;46599;-82
2022/08/16 04:14:53;;;;;;;;;29.00;27.75;;;;;24.42;50.96;99967.38;5074091;27;45505;-78
2022/08/16 04:17:18;;;;;;;;;24.00;23.50;;;;;24.38;51.05;99968.84;5073763;27;45712;-78
2022/08/16 04:19:43;;;;;;;;;26.75;26.00;;;;;24.33;50.69;99960.63;5074136;27;45577;-81
2022/08/16 04:25:31;;;;;;;;;23.75;23.75;;;;;24.26;50.59;99960.66;5074000;28;45658;-81
2022/08/16 04:27:56;;;;;;;;;22.25;21.75;;;;;24.22;51.09;99954.91;5073975;28;45658;-81
2022/08/16 04:30:22;;;;;;;;;22.75;21.75;;;;;24.21;51.31;99961.31;5074147;28;45686;-80
2022/08/16 04:32:47;;;;;;;;;24.00;23.00;;;;;24.22;50.92;99968.31;5073093;27;46289;-80
2022/08/16 04:35:16;;;;;;;;;24.75;24.25;;;;;24.20;51.39;99965.00;5073854;27;45961;-77
2022/08/16 04:37:46;;;;;;;;;22.25;20.25;;;;;24.19;51.38;99963.38;5073555;27;45652;-80
2022/08/16 04:40:12;;;;;;;;;23.00;20.50;;;;;24.17;50.81;99962.78;5074040;27;46596;-78
2022/08/16 04:42:39;;;;;;;;;25.25;21.50;;;;;24.14;51.88;99967.69;5073383;28;46487;-80
2022/08/16 04:45:06;;;;;;;;;23.25;21.75;;;;;24.07;51.12;99962.38;5074010;28;45652;-81
2022/08/16 04:47:32;;;;;;;;;22.00;20.50;;;;;24.01;51.27;99952.53;5073722;27;45697;-78
2022/08/16 04:49:57;;;;;;;;;23.75;22.00;;;;;24.02;51.60;99953.34;5072161;28;47579;-79
2022/08/16 04:52:23;;;;;;;;;21.75;19.50;;;;;24.05;51.30;99971.63;5071818;28;48473;-79
2022/08/16 04:54:48;;;;;;;;;20.00;19.25;;;;;24.03;51.02;99969.16;5073615;27;45490;-78
2022/08/16 04:57:14;;;;;;;;;20.50;20.50;;;;;24.03;51.66;99969.16;5073536;27;45752;-79
2022/08/16 04:59:40;;;;;;;;;20.75;19.75;;;;;23.99;51.63;99967.97;5073888;27;46590;-79
2022/08/16 05:02:06;;;;;;;;;19.25;18.00;;;;;23.99;52.05;99967.97;5073481;27;46488;-81
2022/08/16 05:04:32;;;;;;;;;19.75;18.00;;;;;23.97;51.81;99970.00;5073576;27;45858;-78
2022/08/16 05:10:19;;;;;;;;;19.50;16.75;;;;;23.98;51.33;99982.38;5073431;28;45576;-81
2022/08/16 05:12:44;;;;;;;;;19.50;18.50;;;;;24.00;52.00;99988.34;5073390;27;47502;-77
2022/08/16 05:15:10;;;;;;;;;20.00;17.50;;;;;23.97;52.14;99978.03;5075010;27;46069;-80
2022/08/16 05:17:36;;;;;;;;;18.75;17.25;;;;;24.00;51.33;99991.00;5074582;27;45691;-80
2022/08/16 05:20:03;;;;;;;;;18.50;16.50;;;;;23.99;51.29;99985.88;5073887;27;45689;-79
2022/08/16 05:25:50;;;;;;;;;22.25;21.00;;;;;23.97;51.94;99993.31;5073249;28;45825;-81
2022/08/16 05:28:17;;;;;;;;;18.50;18.00;;;;;24.00;52.02;100006.25;5071711;28;45637;-79
2022/08/16 05:30:43;;;;;;;;;17.50;16.00;;;;;24.00;52.20;99996.38;5073010;27;47882;-81
2022/08/16 05:33:09;;;;;;;;;18.00;16.50;;;;;23.99;51.63;100001.94;5073408;27;45696;-81
2022/08/16 05:35:35;;;;;;;;;17.50;16.75;;;;;24.00;52.00;100016.97;5073709;27;45839;-77
2022/08/16 05:38:00;;;;;;;;;15.25;14.75;;;;;24.01;52.05;100010.56;5073769;27;45552;-81
2022/08/16 05:40:25;;;;;;;;;16.25;14.50;;;;;24.00;51.41;100008.94;5073417;27;45567;-80
2022/08/16 05:42:51;;;;;;;;;17.75;17.25;;;;;24.00;51.73;100000.91;5073239;27;46256;-80
2022/08/16 05:45:16;;;;;;;;;16.75;15.50;;;;;24.04;51.51;100002.13;5076424;27;45469;-77
2022/08/16 05:47:42;;;;;;;;;17.50;16.75;;;;;24.02;52.16;99996.97;5077008;27;45622;-80
2022/08/16 05:50:08;;;;;;;;;17.50;17.50;;;;;24.05;51.58;100015.28;5076554;27;45672;-79
2022/08/16 05:55:55;;;;;;;;;16.50;15.75;;;;;23.96;51.97;100016.56;5076911;28;45842;-81
2022/08/16 05:58:21;;;;;;;;;17.50;16.75;;;;;23.95;51.57;100011.41;5076236;28;45771;-81
2022/08/16 06:00:46;;;;;;;;;38.50;32.50;;;;;23.95;51.66;100014.91;5076230;27;46881;-81
2022/08/16 06:03:14;;;;;;;;;40.50;33.75;;;;;23.96;51.69;100016.56;5075949;27;47253;-80
2022/08/16 06:05:40;;;;;;;;;17.75;17.00;;;;;23.98;52.26;100021.69;5076521;27;45723;-83
2022/08/16 06:10:58;;;;;;;;;19.75;18.50;;;;;24.05;51.73;100027.84;5075443;28;45544;-79
2022/08/16 06:13:23;;;;;;;;;23.75;21.00;;;;;24.04;51.98;100027.03;5075817;27;46287;-80
2022/08/16 06:15:50;;;;;;;;;14.75;14.25;;;;;24.01;51.53;100022.09;5075996;27;45731;-80
2022/08/16 06:18:17;;;;;;;;;21.75;20.50;;;;;24.12;51.25;100032.16;5075741;27;45605;-81
2022/08/16 06:20:42;;;;;;;;;19.75;18.50;;;;;24.15;51.75;100031.72;5074433;28;48352;-81
2022/08/16 06:23:08;;;;;;;;;19.75;18.25;;;;;24.19;51.63;100030.28;5076021;27;45829;-80
2022/08/16 06:28:01;;;;;;;;;22.00;22.00;;;;;24.27;51.33;100031.09;5069445;22;67893;-77
2022/08/16 06:30:27;;;;;;;;;21.50;20.50;;;;;24.30;51.82;100038.69;5004401;28;45996;-84
2022/08/16 06:32:52;;;;;;;;;15.25;14.50;;;;;24.34;51.35;100038.09;5002962;28;46323;-83
2022/08/16 06:35:17;;;;;;;;;18.50;17.50;;;;;24.38;51.40;100036.63;5013865;28;45816;-82
2022/08/16 06:37:59;;;;;;;;;18.50;18.00;;;;;24.41;51.52;100040.72;5009880;28;45784;-83
2022/08/16 06:40:24;;;;;;;;;15.50;15.00;;;;;24.43;51.10;100036.81;4994441;28;46554;-82
2022/08/16 06:42:56;;;;;;;;;16.75;15.00;;;;;24.46;51.82;100030.19;5025356;28;46232;-80
2022/08/16 06:45:22;;;;;;;;;20.75;18.00;;;;;24.48;51.03;100033.47;5011670;28;45755;-82
2022/08/16 06:47:48;;;;;;;;;21.00;19.50;;;;;24.50;51.37;100031.44;4993918;28;45623;-80
2022/08/16 06:50:13;;;;;;;;;18.25;17.75;;;;;24.52;50.98;100032.84;5008623;28;46504;-81
2022/08/16 06:52:39;;;;;;;;;19.75;17.75;;;;;24.53;51.57;100039.84;5014708;28;47267;-79
2022/08/16 06:55:07;;;;;;;;;19.75;19.25;;;;;24.54;51.01;100035.31;5013273;28;45704;-75
2022/08/16 06:57:32;;;;;;;;;18.25;17.25;;;;;24.55;51.22;100043.16;4999693;28;45794;-75
2022/08/16 06:59:58;;;;;;;;;19.00;18.25;;;;;24.55;51.07;100036.97;5015964;28;47630;-80
2022/08/16 07:02:24;;;;;;;;;23.50;22.00;;;;;24.56;51.40;100042.09;5005941;28;46445;-80
2022/08/16 07:04:51;;;;;;;;;20.00;18.25;;;;;24.58;51.23;100047.25;4993475;28;45775;-76
2022/08/16 07:07:19;;;;;;;;;20.50;18.50;;;;;24.56;51.14;100035.94;5012344;28;45858;-80
2022/08/16 07:09:44;;;;;;;;;19.25;17.25;;;;;24.57;51.47;100043.72;4999605;28;45856;-78
2022/08/16 07:12:10;;;;;;;;;17.50;17.25;;;;;24.58;51.64;100039.19;4992940;28;46611;-81
2022/08/16 07:14:35;;;;;;;;;22.00;18.00;;;;;24.59;51.43;100047.03;4993147;28;45689;-80
2022/08/16 07:17:02;;;;;;;;;20.50;19.50;;;;;24.60;51.24;100047.84;5005697;28;45689;-83
2022/08/16 07:19:31;;;;;;;;;18.75;18.75;;;;;24.61;51.03;100046.81;4993360;28;45668;-82
2022/08/16 07:21:56;;;;;;;;;17.00;16.00;;;;;24.58;51.38;100045.38;4999821;28;46108;-82
2022/08/16 07:24:21;;;;;;;;;16.50;14.75;;;;;24.58;51.28;100042.72;5011782;28;45589;-82
2022/08/16 07:26:47;;;;;;;;;17.25;17.00;;;;;24.62;51.04;100046.59;4999046;28;45626;-76
2022/08/16 07:29:12;;;;;;;;;18.25;16.50;;;;;24.64;51.18;100051.75;4999979;28;47399;-80
2022/08/16 07:31:38;;;;;;;;;20.25;17.75;;;;;24.66;51.17;100049.69;5005627;28;45619;-77
2022/08/16 07:34:03;;;;;;;;;19.00;18.50;;;;;24.68;50.92;100044.91;4994331;28;45623;-78
2022/08/16 07:36:28;;;;;;;;;20.00;17.75;;;;;24.70;51.47;100048.22;5005931;28;45655;-78
2022/08/16 07:38:54;;;;;;;;;18.50;17.25;;;;;24.71;50.82;100057.91;5006151;28;45662;-79
2022/08/16 07:41:20;;;;;;;;;20.50;19.50;;;;;24.71;51.44;100054.41;5005597;28;46032;-79
2022/08/16 07:43:45;;;;;;;;;18.00;17.00;;;;;24.74;51.11;100067.34;4991536;28;45749;-76
2022/08/16 07:46:11;;;;;;;;;17.00;17.00;;;;;24.72;50.95;100046.16;4993223;28;45662;-80
2022/08/16 07:48:36;;;;;;;;;16.25;16.00;;;;;24.77;51.30;100054.38;5003766;28;45586;-82
2022/08/16 07:51:02;;;;;;;;;19.50;18.00;;;;;24.80;50.82;100064.66;5007909;28;45977;-81
2022/08/16 07:53:29;;;;;;;;;19.00;19.00;;;;;24.79;50.82;100057.63;4992708;28;45776;-83
2022/08/16 07:55:58;;;;;;;;;16.50;16.25;;;;;24.80;50.94;100063.81;5006293;28;45685;-79
2022/08/16 07:58:24;;;;;;;;;15.25;15.00;;;;;24.79;51.12;100057.63;4993290;28;46539;-83
2022/08/16 08:00:50;;;;;;;;;21.75;19.25;;;;;24.79;50.85;100059.50;5015298;28;47220;-82
2022/08/16 08:03:15;;;;;;;;;18.50;17.75;;;;;24.77;51.64;100058.91;4999467;28;45603;-82
2022/08/16 08:05:40;;;;;;;;;17.00;15.50;;;;;24.77;51.10;100059.72;4992850;28;45519;-80
2022/08/16 08:08:06;;;;;;;;;16.50;15.25;;;;;24.80;51.07;100064.66;5004555;28;47254;-83
2022/08/16 08:10:31;;;;;;;;;17.50;16.00;;;;;24.79;51.15;100057.63;4992766;28;46405;-80
2022/08/16 08:12:57;;;;;;;;;16.75;16.00;;;;;24.84;51.04;100059.66;4992770;28;45883;-76
2022/08/16 08:15:23;;;;;;;;;19.25;17.25;;;;;24.85;51.29;100055.97;5004378;28;45891;-80
2022/08/16 08:17:49;;;;;;;;;17.00;16.00;;;;;24.88;51.25;100063.63;4991692;28;46822;-81
2022/08/16 08:20:17;;;;;;;;;16.75;15.75;;;;;24.88;50.84;100060.94;4993550;28;46557;-75
2022/08/16 08:22:45;;;;;;;;;18.75;18.00;;;;;24.92;50.90;100059.47;4999270;28;45785;-82
2022/08/16 08:25:12;;;;;;;;;14.50;13.25;;;;;24.90;50.92;100054.31;4999587;28;45814;-83
2022/08/16 08:27:37;;;;;;;;;16.50;16.00;;;;;24.95;50.88;100062.53;4998961;28;46707;-83
2022/08/16 08:30:04;;;;;;;;;17.50;17.00;;;;;24.98;50.70;100056.75;4999642;28;47194;-82
2022/08/16 08:32:30;;;;;;;;;14.50;13.25;;;;;24.99;50.70;100060.25;4998413;28;46042;-82
2022/08/16 08:34:57;;;;;;;;;17.50;16.50;;;;;25.05;50.95;100068.22;5010725;28;46188;-81
2022/08/16 08:37:24;;;;;;;;;18.25;17.75;;;;;25.10;50.52;100069.47;5010993;28;46428;-82
2022/08/16 08:39:50;;;;;;;;;18.75;17.00;;;;;25.16;50.73;100072.06;5002047;28;47312;-81
2022/08/16 08:42:15;;;;;;;;;16.75;15.25;;;;;25.21;50.71;100071.44;4997703;28;45719;-81
2022/08/16 08:44:41;;;;;;;;;17.25;15.25;;;;;25.23;50.29;100075.53;4992590;28;45763;-82
2022/08/16 08:47:06;;;;;;;;;16.50;15.25;;;;;25.26;50.10;100069.75;5004250;28;46786;-82
2022/08/16 08:49:33;;;;;;;;;15.50;14.75;;;;;25.33;50.26;100083.09;4997687;28;45545;-77
2022/08/16 08:51:59;;;;;;;;;17.25;16.00;;;;;25.36;50.01;100083.50;5005820;28;45677;-80
2022/08/16 08:54:25;;;;;;;;;15.25;15.00;;;;;25.40;49.46;100081.19;5024206;28;46070;-81
2022/08/16 08:56:54;;;;;;;;;16.00;15.00;;;;;25.46;49.90;100073.09;5004986;28;45692;-81
2022/08/16 08:59:19;;;;;;;;;15.25;13.50;;;;;25.53;49.35;100075.72;4992254;28;46319;-81
2022/08/16 09:01:46;;;;;;;;;13.00;12.00;;;;;25.58;49.29;100075.09;5003900;28;45832;-79
2022/08/16 09:04:12;;;;;;;;;16.00;14.00;;;;;25.61;49.15;100072.78;5007658;28;45575;-82
2022/08/16 09:06:38;;;;;;;;;15.00;13.25;;;;;25.62;48.75;100077.13;5007126;28;46612;-79
2022/08/16 09:09:05;;;;;;;;;13.00;12.50;;;;;25.65;49.03;100079.34;4999310;28;45672;-83
2022/08/16 09:11:31;;;;;;;;;13.50;13.00;;;;;25.70;49.11;100086.75;4998988;28;45669;-80
2022/08/16 09:13:56;;;;;;;;;11.50;11.50;;;;;25.70;48.43;100084.88;5007241;28;45966;-83
2022/08/16 09:16:21;;;;;;;;;14.75;13.75;;;;;25.73;48.54;100089.00;5010964;28;46405;-82
2022/08/16 09:18:47;;;;;;;;;13.25;13.25;;;;;25.74;48.61;100080.75;5005760;28;45703;-82
2022/08/16 09:21:13;;;;;;;;;16.00;13.50;;;;;25.79;48.75;100083.59;5008669;28;45804;-81
2022/08/16 09:23:40;;;;;;;;;17.75;17.00;;;;;25.85;48.82;100095.31;5004017;28;45894;-82
2022/08/16 09:26:07;;;;;;;;;14.50;13.25;;;;;25.90;48.76;100096.28;5008959;28;45768;-81
2022/08/16 09:28:33;;;;;;;;;14.25;11.00;;;;;25.97;48.46;100104.25;5007232;28;46110;-82
2022/08/16 09:30:59;;;;;;;;;12.50;12.25;;;;;26.04;48.32;100107.69;4996051;28;45717;-80
2022/08/16 09:33:24;;;;;;;;;13.00;13.00;;;;;26.11;47.92;100108.47;5013359;28;46356;-83
2022/08/16 09:35:50;;;;;;;;;15.50;14.75;;;;;26.21;48.05;100110.63;5015850;28;45802;-82
2022/08/16 09:38:16;;;;;;;;;14.00;13.75;;;;;26.28;47.73;100108.72;5016161;28;47215;-83
2022/08/16 09:40:45;;;;;;;;;14.75;14.25;;;;;26.36;47.38;100108.41;5002964;28;45985;-76
2022/08/16 09:43:14;;;;;;;;;14.75;14.00;;;;;26.43;47.48;100108.34;5015933;28;45717;-79
2022/08/16 09:45:40;;;;;;;;;12.75;11.75;;;;;26.48;47.30;100103.13;5012436;28;46368;-79
2022/08/16 09:48:07;;;;;;;;;15.25;14.75;;;;;26.53;47.29;100104.09;5003582;28;46311;-82
2022/08/16 09:50:34;;;;;;;;;12.00;12.00;;;;;26.58;47.13;100106.09;5010015;28;45692;-80
2022/08/16 09:53:00;;;;;;;;;14.75;14.75;;;;;26.62;46.67;100102.72;5002838;28;46093;-81
2022/08/16 09:55:25;;;;;;;;;12.25;12.00;;;;;26.66;46.67;100101.25;4998564;28;46705;-81
2022/08/16 09:57:51;;;;;;;;;13.75;12.75;;;;;26.69;46.63;100091.91;5011950;28;45838;-82
2022/08/16 10:00:16;;;;;;;;;15.00;14.00;;;;;26.72;46.91;100094.16;5014171;28;45803;-81
2022/08/16 10:02:43;;;;;;;;;14.00;13.50;;;;;26.77;46.96;100114.97;5005067;28;45632;-81
2022/08/16 10:05:10;;;;;;;;;15.75;13.25;;;;;26.81;46.82;100110.78;4994663;28;46676;-79
2022/08/16 10:07:35;;;;;;;;;14.25;13.00;;;;;26.84;46.92;100104.94;4993058;28;47131;-81
2022/08/16 10:10:01;;;;;;;;;14.75;13.25;;;;;26.86;46.53;100103.66;4995191;28;45622;-81
2022/08/16 10:15:19;;;;;;;;;14.25;13.75;;;;;26.91;46.83;100101.16;5008408;28;45680;-81
2022/08/16 10:17:46;;;;;;;;;12.00;10.50;;;;;26.95;46.54;100101.50;5013554;28;47244;-77
2022/08/16 10:20:13;;;;;;;;;12.25;11.50;;;;;26.97;46.39;100100.25;5018117;28;45838;-81
2022/08/16 10:22:39;;;;;;;;;13.50;12.75;;;;;27.01;46.24;100106.81;5008185;28;45866;-80
2022/08/16 10:25:06;;;;;;;;;12.25;11.25;;;;;27.02;46.06;100107.63;5005309;28;45897;-79
2022/08/16 10:27:32;;;;;;;;;13.00;13.00;;;;;27.03;46.11;100102.03;5001877;28;46803;-81
2022/08/16 10:29:58;;;;;;;;;13.25;12.50;;;;;27.07;46.30;100111.25;5009457;28;45810;-82
2022/08/16 10:32:23;;;;;;;;;11.00;10.25;;;;;27.08;46.12;100114.78;5014218;28;45578;-81
2022/08/16 10:34:49;;;;;;;;;15.50;14.25;;;;;27.10;45.58;100109.97;5000181;28;47353;-81
2022/08/16 10:37:14;;;;;;;;;14.00;13.00;;;;;27.09;45.66;100105.66;4999398;28;46147;-79
2022/08/16 10:39:39;;;;;;;;;12.25;11.00;;;;;27.17;45.60;100116.09;4999957;28;45708;-82
2022/08/16 10:42:06;;;;;;;;;12.75;11.50;;;;;27.21;45.68;100109.19;5014093;28;45487;-77
2022/08/16 10:44:31;;;;;;;;;12.00;12.00;;;;;27.24;46.08;100103.38;4993431;28;47316;-79
2022/08/16 10:46:56;;;;;;;;;15.25;14.00;;;;;27.30;45.27;100099.75;5006322;28;45745;-83
2022/08/16 10:49:22;;;;;;;;;12.25;12.25;;;;;27.35;45.51;100099.06;5002597;28;45748;-81
2022/08/16 10:51:47;;;;;;;;;14.00;13.00;;;;;27.40;45.27;100105.41;5013564;28;45711;-81
2022/08/16 10:54:13;;;;;;;;;17.00;14.25;;;;;27.44;45.61;100108.44;4994537;28;47321;-83
2022/08/16 10:56:38;;;;;;;;;11.50;11.50;;;;;27.48;45.37;100107.72;4993491;28;46136;-79
2022/08/16 10:59:04;;;;;;;;;14.00;13.75;;;;;27.54;45.26;100109.53;5010880;28;45789;-83
2022/08/16 11:01:30;;;;;;;;;13.50;12.25;;;;;27.60;45.07;100112.34;5013732;28;45627;-82
2022/08/16 11:03:56;;;;;;;;;12.25;12.25;;;;;27.66;45.03;100114.94;5013175;28;46499;-82
2022/08/16 11:06:21;;;;;;;;;12.00;12.00;;;;;27.73;45.33;100117.53;5001411;28;46314;-82
2022/08/16 11:08:47;;;;;;;;;13.75;12.75;;;;;27.79;44.87;100116.59;4998457;28;45602;-82
2022/08/16 11:11:14;;;;;;;;;13.50;13.50;;;;;27.87;44.62;100114.38;5013631;28;45609;-80
2022/08/16 11:13:40;;;;;;;;;13.50;13.00;;;;;27.97;44.90;100119.16;4997982;28;46129;-82
2022/08/16 11:16:07;;;;;;;;;12.75;12.75;;;;;28.05;44.39;100116.13;4993373;28;46590;-83
2022/08/16 11:18:33;;;;;;;;;11.25;11.00;;;;;28.14;43.80;100119.31;5007126;28;46134;-82
2022/08/16 11:20:59;;;;;;;;;12.25;11.25;;;;;28.23;43.65;100120.59;4996893;28;45790;-83
2022/08/16 11:23:26;;;;;;;;;11.50;10.50;;;;;28.28;43.62;100108.06;5005407;28;45632;-82
2022/08/16 11:25:53;;;;;;;;;13.25;13.00;;;;;28.37;43.77;100109.31;5006140;28;46446;-83
2022/08/16 11:28:19;;;;;;;;;18.25;15.75;;;;;28.46;43.78;100112.47;5014308;28;45996;-83
2022/08/16 11:30:45;;;;;;;;;14.00;12.50;;;;;28.53;44.12;100115.03;5011760;28;45865;-75
2022/08/16 11:33:10;;;;;;;;;13.50;13.25;;;;;28.58;43.35;100115.13;5030588;28;48278;-83
2022/08/16 11:35:37;;;;;;;;;14.25;13.00;;;;;28.63;43.08;100113.38;5013274;28;45704;-83
2022/08/16 11:38:09;;;;;;;;;12.75;12.75;;;;;28.69;42.82;100114.28;5005193;28;45805;-82
2022/08/16 11:40:49;;;;;;;;;14.00;13.00;;;;;28.75;42.88;100116.06;5006226;28;45972;-83
2022/08/16 11:43:18;;;;;;;;;13.75;12.25;;;;;28.80;42.18;100118.84;5009880;28;46125;-77
2022/08/16 11:45:46;;;;;;;;;11.75;11.75;;;;;28.84;42.59;100120.00;5022042;28;47627;-81
2022/08/16 11:48:12;;;;;;;;;14.75;14.00;;;;;28.88;42.54;100126.53;5010409;28;45600;-80